Time;durP1;ratioP1;P1;durP2;ratioP2;P2;SDS_P1;SDS_P2;PMS_P1;PMS_P2;Temp;Humidity;BMP_temperature;BMP_pressure;BME280_temperature;BME280_humidity;BME280_pressure;Samples;Min_cycle;Max_cycle;Signal;HPM_P1;HPM_P2
2023/05/17 00:01:49;;;;;;;24.10;2.55;;;8.80;99.90;;;;;;4955309;28;20034;-64
2023/05/17 00:04:15;;;;;;;24.23;2.45;;;8.90;99.90;;;;;;4953655;28;20050;-64
2023/05/17 00:06:41;;;;;;;24.63;2.83;;;8.90;99.90;;;;;;4952055;28;20505;-63
2023/05/17 00:09:07;;;;;;;20.98;2.83;;;8.90;99.90;;;;;;4936595;28;20064;-63
2023/05/17 00:11:33;;;;;;;24.17;3.22;;;8.90;99.90;;;;;;4936060;28;20165;-64
2023/05/17 00:13:59;;;;;;;25.92;2.97;;;8.90;99.90;;;;;;4951939;28;20051;-64
2023/05/17 00:16:25;;;;;;;22.08;2.60;;;8.90;99.90;;;;;;4964222;28;20050;-64
2023/05/17 00:18:51;;;;;;;22.65;2.53;;;9.00;99.90;;;;;;4984630;28;20054;-64
2023/05/17 00:21:17;;;;;;;20.50;2.70;;;8.90;99.90;;;;;;4984330;28;20130;-64
2023/05/17 00:23:42;;;;;;;24.02;3.22;;;8.90;99.90;;;;;;4937211;28;20043;-64
2023/05/17 00:26:08;;;;;;;22.15;2.65;;;8.90;99.90;;;;;;4982891;28;20250;-65
2023/05/17 00:28:34;;;;;;;22.23;3.10;;;8.90;99.90;;;;;;4936392;28;20046;-65
2023/05/17 00:31:00;;;;;;;21.75;2.92;;;8.90;99.90;;;;;;4967896;28;20055;-63
2023/05/17 00:33:25;;;;;;;20.65;2.58;;;8.90;99.90;;;;;;4953792;28;20439;-64
2023/05/17 00:35:51;;;;;;;21.05;2.55;;;9.00;99.90;;;;;;4984216;28;20038;-64
2023/05/17 00:38:17;;;;;;;26.98;2.70;;;9.10;99.90;;;;;;4952581;28;20300;-64
2023/05/17 00:40:42;;;;;;;18.67;2.50;;;9.10;99.90;;;;;;4983639;28;20042;-63
2023/05/17 00:43:08;;;;;;;22.25;2.63;;;9.10;99.90;;;;;;4967356;28;20165;-64
2023/05/17 00:45:34;;;;;;;17.65;2.33;;;9.10;99.90;;;;;;4952423;28;20047;-64
2023/05/17 00:48:00;;;;;;;21.63;2.35;;;9.10;99.90;;;;;;4953363;28;20054;-63
2023/05/17 00:50:25;;;;;;;21.23;2.42;;;9.10;99.90;;;;;;4953172;28;20039;-64
2023/05/17 00:52:51;;;;;;;20.05;2.25;;;9.00;99.90;;;;;;4950433;28;20058;-63
2023/05/17 00:55:18;;;;;;;20.55;1.92;;;8.90;99.90;;;;;;4953986;28;20050;-64
2023/05/17 00:57:45;;;;;;;21.92;2.58;;;8.90;99.90;;;;;;4967319;28;20699;-63
2023/05/17 01:00:12;;;;;;;21.52;2.47;;;8.80;99.90;;;;;;4953042;28;20450;-64
2023/05/17 01:02:37;;;;;;;24.33;2.70;;;8.70;99.90;;;;;;4954264;28;20053;-64
2023/05/17 01:05:03;;;;;;;17.02;1.70;;;8.70;99.90;;;;;;4990600;28;20496;-66
2023/05/17 01:07:29;;;;;;;18.90;2.20;;;8.60;99.90;;;;;;4940054;28;20047;-64
2023/05/17 01:09:55;;;;;;;21.20;1.95;;;8.50;99.90;;;;;;4987953;28;20046;-65
2023/05/17 01:12:53;;;;;;;19.27;1.80;;;8.50;99.90;;;;;;4940402;28;20464;-64
2023/05/17 01:15:24;;;;;;;14.20;1.52;;;8.50;99.90;;;;;;4956458;28;20338;-64
2023/05/17 01:18:33;;;;;;;14.75;1.60;;;8.50;99.90;;;;;;4954956;28;20268;-66
2023/05/17 01:21:01;;;;;;;15.25;1.67;;;8.60;99.90;;;;;;4986803;28;20092;-64
2023/05/17 01:23:44;;;;;;;17.25;1.75;;;8.60;99.90;;;;;;4970789;28;20043;-65
2023/05/17 01:26:37;;;;;;;18.30;2.50;;;8.80;99.90;;;;;;4971350;28;20472;-64
2023/05/17 01:29:04;;;;;;;13.88;1.52;;;8.80;99.90;;;;;;4986176;28;20039;-65
2023/05/17 01:31:30;;;;;;;19.95;2.40;;;8.90;99.90;;;;;;4987025;28;20051;-66
2023/05/17 01:33:57;;;;;;;15.27;1.45;;;8.90;99.90;;;;;;4988911;28;20095;-64
2023/05/17 01:36:25;;;;;;;20.38;2.42;;;8.90;99.90;;;;;;4938790;28;20077;-63
2023/05/17 01:38:51;;;;;;;19.52;1.63;;;8.90;99.90;;;;;;4924955;28;20042;-63
2023/05/17 01:41:43;;;;;;;16.50;1.98;;;8.90;99.90;;;;;;4938344;28;20410;-64
2023/05/17 01:44:36;;;;;;;22.52;1.90;;;9.00;99.90;;;;;;4970545;28;20337;-63
2023/05/17 01:47:49;;;;;;;18.25;1.67;;;9.10;99.90;;;;;;4986959;28;20046;-63
2023/05/17 01:50:18;;;;;;;19.67;1.70;;;9.00;99.90;;;;;;4944029;28;20074;-64
2023/05/17 01:52:50;;;;;;;23.27;1.83;;;9.00;99.90;;;;;;4987067;28;20089;-65
2023/05/17 01:55:33;;;;;;;19.70;1.80;;;8.80;99.90;;;;;;4955201;28;20117;-64
2023/05/17 01:58:02;;;;;;;14.48;1.40;;;8.70;99.90;;;;;;4955926;28;20449;-63
2023/05/17 02:00:29;;;;;;;14.30;1.45;;;8.60;99.90;;;;;;4988240;28;20490;-63
2023/05/17 02:02:54;;;;;;;14.63;1.30;;;8.50;99.90;;;;;;4985746;28;20121;-65
2023/05/17 02:05:20;;;;;;;11.98;1.05;;;8.50;99.90;;;;;;4970029;28;20043;-63
2023/05/17 02:07:46;;;;;;;9.13;1.20;;;8.50;99.90;;;;;;4986901;28;20039;-64
2023/05/17 02:10:12;;;;;;;15.50;1.13;;;8.50;99.90;;;;;;4987954;28;20039;-63
2023/05/17 02:12:37;;;;;;;15.25;1.33;;;8.50;99.90;;;;;;4955273;28;20047;-64
2023/05/17 02:15:04;;;;;;;10.65;1.20;;;8.40;99.90;;;;;;4938329;28;20055;-63
2023/05/17 02:17:29;;;;;;;17.70;2.20;;;8.50;99.90;;;;;;4986763;28;20194;-64
2023/05/17 02:19:55;;;;;;;14.60;1.58;;;8.60;99.90;;;;;;4955260;28;20752;-63
2023/05/17 02:22:21;;;;;;;14.30;1.52;;;8.60;93.00;;;;;;4938734;28;20046;-63
2023/05/17 02:24:47;;;;;;;14.52;1.55;;;8.60;97.50;;;;;;4954795;28;20050;-65
2023/05/17 02:27:13;;;;;;;11.98;1.52;;;8.60;57.80;;;;;;4952720;28;20796;-63
2023/05/17 02:29:39;;;;;;;12.85;1.08;;;8.60;41.80;;;;;;4948920;28;20113;-64
2023/05/17 02:32:05;;;;;;;12.93;0.80;;;8.60;49.20;;;;;;4954782;28;20416;-64
2023/05/17 02:34:31;;;;;;;11.75;1.10;;;8.60;65.30;;;;;;4954599;28;20054;-64
2023/05/17 02:36:56;;;;;;;11.23;0.85;;;8.60;1.00;;;;;;4986174;28;20062;-64
2023/05/17 02:39:22;;;;;;;12.40;1.13;;;8.60;1.00;;;;;;4953979;28;20038;-63
2023/05/17 02:41:48;;;;;;;10.38;1.30;;;8.60;1.00;;;;;;4985052;28;20047;-65
2023/05/17 02:44:14;;;;;;;17.20;1.02;;;8.50;1.00;;;;;;4969299;28;20150;-64
2023/05/17 02:46:39;;;;;;;11.63;0.82;;;8.50;1.00;;;;;;4937604;28;20035;-64
2023/05/17 02:49:05;;;;;;;11.38;1.40;;;8.50;1.00;;;;;;4936602;28;20031;-63
2023/05/17 02:51:30;;;;;;;12.00;1.05;;;8.50;1.00;;;;;;4953939;28;20093;-64
2023/05/17 02:53:56;;;;;;;8.25;1.00;;;8.40;1.00;;;;;;4954477;28;20070;-64
2023/05/17 02:56:22;;;;;;;8.88;1.50;;;8.40;1.00;;;;;;4938857;28;20224;-64
2023/05/17 02:58:47;;;;;;;15.38;1.10;;;8.30;1.00;;;;;;4968722;28;20154;-64
2023/05/17 03:01:13;;;;;;;10.35;0.98;;;8.30;99.90;;;;;;4967913;28;20046;-64
2023/05/17 03:03:39;;;;;;;10.65;0.77;;;8.30;99.90;;;;;;4937927;28;20409;-63
2023/05/17 03:06:04;;;;;;;13.18;0.80;;;8.30;99.90;;;;;;4953754;28;20636;-64
2023/05/17 03:08:30;;;;;;;9.68;0.90;;;8.30;99.90;;;;;;4953427;28;20050;-64
2023/05/17 03:10:56;;;;;;;12.63;0.85;;;8.30;99.90;;;;;;4984380;28;20568;-64
2023/05/17 03:13:21;;;;;;;11.27;0.77;;;8.40;1.00;;;;;;4955179;28;20405;-63
2023/05/17 03:15:47;;;;;;;8.57;0.75;;;8.40;1.00;;;;;;4952594;28;20101;-63
2023/05/17 03:18:13;;;;;;;10.13;1.00;;;8.40;1.00;;;;;;4953415;28;20676;-64
2023/05/17 03:20:39;;;;;;;14.82;1.73;;;8.40;1.00;;;;;;4968627;28;20150;-64
2023/05/17 03:23:04;;;;;;;9.48;0.80;;;8.40;1.00;;;;;;4952296;28;20394;-64
2023/05/17 03:25:30;;;;;;;15.50;1.42;;;8.50;1.00;;;;;;4951108;28;20612;-63
2023/05/17 03:27:56;;;;;;;15.70;1.38;;;8.50;1.00;;;;;;4937461;28;20034;-63
2023/05/17 03:30:21;;;;;;;10.25;0.90;;;8.50;1.00;;;;;;4968197;28;20058;-63
2023/05/17 03:32:47;;;;;;;12.70;1.35;;;8.50;1.00;;;;;;4953237;28;20047;-63
2023/05/17 03:35:13;;;;;;;16.77;1.27;;;8.60;1.00;;;;;;4952298;28;20405;-63
2023/05/17 03:37:39;;;;;;;11.43;1.10;;;8.60;1.00;;;;;;4937384;28;20131;-63
2023/05/17 03:40:05;;;;;;;16.15;1.17;;;8.60;1.00;;;;;;4953588;28;20633;-64
2023/05/17 03:42:30;;;;;;;11.32;1.10;;;8.60;1.00;;;;;;4952486;28;20473;-63
2023/05/17 03:44:56;;;;;;;10.75;0.73;;;8.60;1.00;;;;;;4953380;28;20137;-64
2023/05/17 03:47:22;;;;;;;12.82;1.00;;;8.60;1.00;;;;;;4947054;28;20049;-64
2023/05/17 03:49:48;;;;;;;11.52;0.80;;;8.60;1.00;;;;;;4953018;28;20080;-64
2023/05/17 03:52:14;;;;;;;10.15;1.23;;;8.60;1.00;;;;;;4953268;28;20133;-65
2023/05/17 03:54:40;;;;;;;9.10;0.75;;;8.60;1.00;;;;;;4932912;28;20612;-64
2023/05/17 03:57:06;;;;;;;11.23;0.70;;;8.60;99.90;;;;;;4952614;28;20034;-65
2023/05/17 03:59:31;;;;;;;11.43;1.02;;;8.60;1.00;;;;;;4986288;28;20301;-64
2023/05/17 04:01:57;;;;;;;7.25;0.65;;;8.50;1.00;;;;;;4952039;28;20101;-65
2023/05/17 04:04:22;;;;;;;15.43;1.17;;;8.50;1.00;;;;;;4984828;28;20050;-64
2023/05/17 04:06:48;;;;;;;9.57;0.93;;;8.60;1.00;;;;;;4985417;28;20485;-64
2023/05/17 04:09:14;;;;;;;9.27;0.65;;;8.50;1.00;;;;;;4937251;28;20159;-65
2023/05/17 04:11:41;;;;;;;9.30;0.75;;;8.60;1.00;;;;;;4952639;28;20157;-64
2023/05/17 04:14:06;;;;;;;10.82;0.75;;;8.60;99.90;;;;;;4935012;28;20042;-64
2023/05/17 04:16:32;;;;;;;9.43;0.90;;;8.50;99.90;;;;;;4953673;28;20042;-64
2023/05/17 04:18:59;;;;;;;7.22;0.70;;;8.50;99.90;;;;;;4984744;28;20338;-65
2023/05/17 04:21:25;;;;;;;8.57;0.63;;;8.50;99.90;;;;;;4953143;28;20046;-64
2023/05/17 04:23:51;;;;;;;15.70;1.27;;;8.50;99.90;;;;;;4952691;28;20047;-65
2023/05/17 04:26:17;;;;;;;11.70;1.33;;;8.60;99.90;;;;;;4952592;28;20548;-64
2023/05/17 04:28:42;;;;;;;11.20;1.40;;;8.60;99.90;;;;;;4968281;28;20038;-65
2023/05/17 04:31:09;;;;;;;13.15;1.02;;;8.60;99.90;;;;;;4985527;28;20141;-64
2023/05/17 04:33:35;;;;;;;9.50;0.98;;;8.60;99.90;;;;;;4954598;28;20137;-65
2023/05/17 04:36:02;;;;;;;12.40;1.10;;;8.60;99.90;;;;;;4954237;28;21109;-65
2023/05/17 04:38:28;;;;;;;20.70;1.85;;;8.60;1.00;;;;;;4988062;28;20300;-65
2023/05/17 04:41:08;;;;;;;13.27;1.55;;;8.70;1.00;;;;;;4956593;28;20039;-64
2023/05/17 04:43:34;;;;;;;18.77;1.88;;;8.70;1.00;;;;;;4952192;28;20077;-64
2023/05/17 04:46:00;;;;;;;16.20;1.83;;;8.70;1.00;;;;;;4988083;28;20065;-64
2023/05/17 04:48:26;;;;;;;19.40;1.88;;;8.80;1.00;;;;;;4951061;28;20035;-64
2023/05/17 04:50:52;;;;;;;16.30;1.58;;;8.80;1.00;;;;;;4950477;28;20513;-63
2023/05/17 04:53:18;;;;;;;14.15;1.38;;;8.70;1.00;;;;;;4996233;28;20058;-65
2023/05/17 04:55:45;;;;;;;21.85;1.80;;;8.70;1.00;;;;;;4998239;28;20049;-65
2023/05/17 04:58:10;;;;;;;15.00;1.90;;;8.70;1.00;;;;;;4984828;28;20050;-63
2023/05/17 05:00:36;;;;;;;20.90;1.92;;;8.70;99.90;;;;;;4949698;28;20057;-63
2023/05/17 05:03:03;;;;;;;18.52;1.80;;;8.70;99.90;;;;;;4945172;28;20042;-66
2023/05/17 05:05:30;;;;;;;11.68;1.42;;;8.70;99.90;;;;;;4982461;28;20049;-67
2023/05/17 05:07:56;;;;;;;23.55;2.60;;;8.70;99.90;;;;;;4965001;28;20046;-64
2023/05/17 05:10:22;;;;;;;14.40;2.03;;;8.70;99.90;;;;;;4966782;28;20042;-65
2023/05/17 05:12:48;;;;;;;16.63;2.13;;;8.70;99.90;;;;;;4966636;28;20464;-64
2023/05/17 05:15:14;;;;;;;14.90;1.83;;;8.70;99.90;;;;;;4965655;28;20038;-64
2023/05/17 05:17:40;;;;;;;17.08;1.70;;;8.70;99.90;;;;;;4985906;28;20050;-67
2023/05/17 05:20:07;;;;;;;13.32;1.75;;;8.60;99.90;;;;;;4965565;28;20497;-64
2023/05/17 05:22:33;;;;;;;15.63;1.75;;;8.60;99.90;;;;;;4998076;28;20597;-64
2023/05/17 05:24:58;;;;;;;19.45;1.55;;;8.60;99.90;;;;;;4948928;28;20046;-65
2023/05/17 05:27:24;;;;;;;16.95;1.75;;;8.60;99.90;;;;;;4981233;28;20039;-64
2023/05/17 05:29:51;;;;;;;14.65;1.80;;;8.70;99.90;;;;;;4950252;28;20484;-64
2023/05/17 05:32:17;;;;;;;13.95;2.17;;;8.70;99.90;;;;;;4949690;28;20113;-64
2023/05/17 05:34:43;;;;;;;17.50;1.85;;;8.70;99.90;;;;;;4966232;28;20073;-64
2023/05/17 05:37:09;;;;;;;21.15;1.88;;;8.70;99.90;;;;;;4966584;28;20129;-64
2023/05/17 05:39:34;;;;;;;13.38;1.75;;;8.80;99.90;;;;;;4949847;28;20042;-64
2023/05/17 05:42:00;;;;;;;19.92;2.22;;;8.90;99.90;;;;;;4966212;28;20511;-63
2023/05/17 05:44:26;;;;;;;14.93;2.05;;;9.00;99.90;;;;;;4965418;28;20050;-64
2023/05/17 05:46:51;;;;;;;20.35;2.03;;;9.00;99.90;;;;;;5000566;28;20394;-64
2023/05/17 05:49:18;;;;;;;14.70;1.83;;;9.00;99.90;;;;;;4947977;28;20039;-63
2023/05/17 05:51:44;;;;;;;17.55;1.67;;;9.10;99.90;;;;;;4965475;28;20043;-64
2023/05/17 05:54:10;;;;;;;18.40;1.77;;;9.20;99.90;;;;;;4948240;28;20077;-64
2023/05/17 05:56:35;;;;;;;24.00;2.28;;;9.20;99.90;;;;;;4960435;28;20046;-64
2023/05/17 05:59:01;;;;;;;17.73;2.28;;;9.20;99.90;;;;;;4933102;28;20054;-63
2023/05/17 06:01:27;;;;;;;19.52;2.05;;;9.20;99.90;;;;;;4967709;28;20074;-63
2023/05/17 06:03:53;;;;;;;18.50;2.03;;;9.20;99.90;;;;;;4967749;28;20038;-64
2023/05/17 06:06:19;;;;;;;19.08;2.03;;;9.20;99.90;;;;;;4988217;28;20417;-63
2023/05/17 06:08:46;;;;;;;15.82;1.95;;;9.20;99.90;;;;;;4940124;28;20082;-63
2023/05/17 06:11:15;;;;;;;17.15;2.10;;;9.30;99.90;;;;;;4971958;28;20048;-63
2023/05/17 06:13:41;;;;;;;21.00;2.55;;;9.10;99.90;;;;;;4943713;28;20479;-64
2023/05/17 06:16:06;;;;;;;18.35;1.67;;;9.10;99.90;;;;;;4943523;28;20129;-63
2023/05/17 06:18:32;;;;;;;14.75;1.90;;;9.20;99.90;;;;;;4940184;28;20134;-63
2023/05/17 06:20:58;;;;;;;15.23;1.67;;;9.50;99.90;;;;;;4978779;28;20362;-65
2023/05/17 06:23:24;;;;;;;17.38;1.88;;;9.60;99.90;;;;;;4937456;28;20085;-64
2023/05/17 06:25:51;;;;;;;15.40;1.50;;;9.70;99.90;;;;;;4938343;28;20046;-64
2023/05/17 06:28:17;;;;;;;14.55;1.67;;;9.90;99.90;;;;;;4956525;28;20048;-63
2023/05/17 06:30:43;;;;;;;12.02;1.27;;;10.00;99.90;;;;;;4970490;28;20235;-64
2023/05/17 06:33:08;;;;;;;12.85;1.15;;;10.10;99.90;;;;;;5004204;28;20515;-63
2023/05/17 06:35:35;;;;;;;13.20;1.23;;;10.10;99.90;;;;;;4955248;28;20042;-66
2023/05/17 06:38:01;;;;;;;11.77;1.55;;;10.10;99.90;;;;;;5003867;28;20054;-63
2023/05/17 06:40:26;;;;;;;16.23;1.20;;;10.20;62.10;;;;;;4987464;28;20136;-64
2023/05/17 06:42:52;;;;;;;15.05;1.45;;;10.60;99.90;;;;;;5004082;28;20444;-64
2023/05/17 06:45:18;;;;;;;10.30;1.35;;;11.00;97.50;;;;;;4971692;28;20543;-63
2023/05/17 06:47:44;;;;;;;9.82;1.00;;;11.30;1.00;;;;;;4988449;28;20104;-64
2023/05/17 06:50:10;;;;;;;17.92;1.60;;;11.00;99.90;;;;;;4972233;28;20061;-64
2023/05/17 06:52:36;;;;;;;16.02;1.50;;;10.80;1.00;;;;;;4988301;28;20038;-64
2023/05/17 06:55:02;;;;;;;12.10;1.67;;;10.70;1.00;;;;;;4987676;28;20046;-63
2023/05/17 06:57:27;;;;;;;12.48;1.30;;;10.30;1.00;;;;;;4971451;28;20047;-64
2023/05/17 06:59:53;;;;;;;14.30;0.93;;;10.30;1.00;;;;;;4967816;28;20038;-63
2023/05/17 07:02:19;;;;;;;13.35;1.25;;;10.30;1.00;;;;;;4939582;28;20035;-63
2023/05/17 07:04:44;;;;;;;13.88;1.33;;;10.10;1.00;;;;;;4958116;28;20077;-64
2023/05/17 07:07:10;;;;;;;9.88;0.80;;;10.20;1.00;;;;;;4969228;28;20548;-64
2023/05/17 07:09:36;;;;;;;14.73;1.42;;;10.30;1.00;;;;;;4952560;28;20066;-64
2023/05/17 07:12:03;;;;;;;13.80;1.30;;;10.20;1.00;;;;;;4934762;28;20034;-63
2023/05/17 07:14:29;;;;;;;10.40;1.08;;;9.80;99.90;;;;;;4968971;28;20499;-64
2023/05/17 07:16:55;;;;;;;12.60;1.10;;;9.60;99.90;;;;;;4968949;28;20244;-63
2023/05/17 07:19:20;;;;;;;8.60;1.10;;;9.50;99.90;;;;;;4938340;28;20250;-65
2023/05/17 07:21:46;;;;;;;10.80;1.10;;;9.70;99.90;;;;;;4949361;28;20505;-64
2023/05/17 07:24:12;;;;;;;10.63;0.80;;;9.70;99.90;;;;;;4936595;28;20489;-64
2023/05/17 07:26:37;;;;;;;10.02;0.93;;;9.90;99.90;;;;;;4938413;28;20482;-63
2023/05/17 07:29:03;;;;;;;9.25;1.10;;;10.30;99.90;;;;;;4932220;28;20034;-63
2023/05/17 07:31:29;;;;;;;13.07;1.20;;;10.60;99.90;;;;;;4935850;28;20055;-66
2023/05/17 07:33:54;;;;;;;13.20;1.15;;;10.80;99.90;;;;;;4952918;28;20047;-63
2023/05/17 07:36:20;;;;;;;10.43;1.10;;;10.90;99.90;;;;;;4937441;28;20511;-64
2023/05/17 07:38:46;;;;;;;10.80;0.90;;;10.50;99.90;;;;;;4938401;28;20413;-64
2023/05/17 07:41:15;;;;;;;16.63;1.55;;;10.50;99.90;;;;;;4936341;28;20436;-64
2023/05/17 07:43:41;;;;;;;11.48;1.10;;;10.50;99.90;;;;;;4968177;28;20449;-64
2023/05/17 07:46:07;;;;;;;13.93;1.15;;;10.60;99.90;;;;;;4986057;28;20038;-64
2023/05/17 07:48:33;;;;;;;13.10;1.10;;;10.70;99.90;;;;;;4953825;28;20429;-63
2023/05/17 07:50:58;;;;;;;10.82;1.63;;;10.60;1.00;;;;;;4968988;28;20085;-63
2023/05/17 07:53:24;;;;;;;13.60;1.30;;;10.50;1.00;;;;;;4968161;28;20437;-65
2023/05/17 07:55:50;;;;;;;11.63;1.38;;;10.60;1.00;;;;;;4968454;28;20053;-64
2023/05/17 07:58:16;;;;;;;10.73;1.05;;;10.60;1.00;;;;;;4952479;28;20045;-63
2023/05/17 08:00:42;;;;;;;12.43;1.08;;;10.60;99.90;;;;;;4968346;28;20460;-64
2023/05/17 08:03:08;;;;;;;11.20;1.08;;;10.60;99.90;;;;;;4931619;28;20056;-63
2023/05/17 08:05:33;;;;;;;7.38;0.95;;;10.70;99.90;;;;;;4932024;28;20506;-65
2023/05/17 08:07:59;;;;;;;10.85;0.90;;;10.70;99.90;;;;;;4964762;28;20042;-63
2023/05/17 08:10:26;;;;;;;11.32;1.15;;;10.80;99.90;;;;;;4953175;28;20432;-63
2023/05/17 08:12:52;;;;;;;14.07;1.08;;;10.70;99.90;;;;;;4933021;28;20282;-64
2023/05/17 08:15:18;;;;;;;10.80;1.08;;;10.60;99.90;;;;;;4952608;28;20057;-63
2023/05/17 08:17:44;;;;;;;14.25;1.13;;;10.70;99.90;;;;;;4937274;28;20038;-63
2023/05/17 08:20:10;;;;;;;12.20;1.45;;;10.80;99.90;;;;;;4953285;28;20046;-63
2023/05/17 08:22:37;;;;;;;8.85;1.02;;;10.80;1.00;;;;;;4952513;28;20065;-65
2023/05/17 08:25:03;;;;;;;14.07;1.27;;;10.80;99.90;;;;;;4968592;28;20405;-63
2023/05/17 08:27:31;;;;;;;8.68;0.95;;;10.70;1.00;;;;;;4932699;28;20042;-66
2023/05/17 08:29:57;;;;;;;13.50;1.17;;;10.50;1.00;;;;;;4965339;28;20765;-63
2023/05/17 08:32:26;;;;;;;12.13;0.93;;;10.50;1.00;;;;;;4952888;28;20046;-64
2023/05/17 08:34:53;;;;;;;10.07;1.13;;;10.50;1.00;;;;;;4931970;28;20540;-64
2023/05/17 08:37:19;;;;;;;9.57;1.02;;;10.90;1.00;;;;;;4952166;28;20077;-63
2023/05/17 08:39:44;;;;;;;9.00;0.93;;;11.10;1.00;;;;;;4967856;28;20130;-64
2023/05/17 08:42:11;;;;;;;11.57;0.80;;;11.30;1.00;;;;;;4937155;28;20058;-64
2023/05/17 08:44:37;;;;;;;9.10;1.00;;;11.20;1.00;;;;;;4937971;28;20248;-64
2023/05/17 08:47:05;;;;;;;9.93;0.95;;;11.20;1.00;;;;;;4937302;28;20497;-65
2023/05/17 08:49:33;;;;;;;9.40;1.17;;;11.20;99.90;;;;;;4953537;28;20057;-63
2023/05/17 08:52:02;;;;;;;9.15;0.70;;;11.10;1.00;;;;;;4953252;28;20602;-63
2023/05/17 08:54:27;;;;;;;11.65;0.93;;;10.90;1.00;;;;;;4984048;28;20077;-66
2023/05/17 08:56:57;;;;;;;11.68;0.85;;;10.80;99.90;;;;;;4953862;28;20449;-64
2023/05/17 08:59:25;;;;;;;12.27;0.80;;;10.80;1.00;;;;;;4971076;28;20471;-64
2023/05/17 09:01:52;;;;;;;10.02;0.95;;;10.90;1.00;;;;;;4953229;28;20117;-64
2023/05/17 09:04:18;;;;;;;14.05;1.45;;;11.10;1.00;;;;;;4936056;28;20051;-63
2023/05/17 09:06:44;;;;;;;11.57;1.40;;;11.10;1.00;;;;;;4984030;28;20047;-64
2023/05/17 09:09:10;;;;;;;14.85;1.15;;;10.80;1.00;;;;;;4984453;28;20046;-64
2023/05/17 09:11:36;;;;;;;9.43;0.80;;;11.10;1.00;;;;;;4952533;28;20066;-64
2023/05/17 09:14:04;;;;;;;12.60;1.23;;;11.40;1.00;;;;;;4951849;28;20051;-65
2023/05/17 09:16:35;;;;;;;8.68;0.90;;;11.50;1.00;;;;;;4951557;28;20046;-64
2023/05/17 09:19:03;;;;;;;8.45;1.20;;;11.60;1.00;;;;;;4949548;28;20182;-64
2023/05/17 09:21:30;;;;;;;9.73;0.90;;;11.70;1.00;;;;;;4979712;28;20046;-64
2023/05/17 09:24:00;;;;;;;9.63;1.00;;;11.70;99.90;;;;;;4955250;28;20047;-64
2023/05/17 09:26:43;;;;;;;12.15;0.95;;;11.90;99.90;;;;;;4955724;28;20047;-64
2023/05/17 09:29:13;;;;;;;9.20;0.70;;;12.00;99.90;;;;;;4956613;28;20125;-63
2023/05/17 09:31:40;;;;;;;8.27;0.90;;;12.10;99.90;;;;;;4956266;28;20435;-65
2023/05/17 09:34:06;;;;;;;6.70;0.63;;;11.40;99.90;;;;;;4956117;28;20270;-64
2023/05/17 09:36:35;;;;;;;11.00;1.08;;;11.70;99.90;;;;;;4940783;28;20074;-64
2023/05/17 09:39:04;;;;;;;6.75;0.70;;;11.80;99.90;;;;;;4939118;28;20310;-65
2023/05/17 09:41:41;;;;;;;5.70;0.63;;;11.90;99.90;;;;;;4955875;28;20081;-65
2023/05/17 09:44:11;;;;;;;6.13;0.82;;;12.10;99.90;;;;;;4954843;28;20151;-64
2023/05/17 09:46:44;;;;;;;7.97;1.10;;;12.80;99.90;;;;;;4957038;28;20090;-64
2023/05/17 09:49:11;;;;;;;9.63;1.13;;;13.00;99.90;;;;;;4954863;28;20058;-64
2023/05/17 09:51:43;;;;;;;6.82;0.70;;;12.80;99.90;;;;;;4954669;28;20575;-65
2023/05/17 09:54:09;;;;;;;11.60;0.88;;;12.60;99.90;;;;;;4986102;28;20046;-66
2023/05/17 09:56:35;;;;;;;9.50;1.02;;;12.20;99.90;;;;;;4955182;28;20457;-64
2023/05/17 09:59:02;;;;;;;8.30;0.98;;;11.90;99.90;;;;;;4987165;28;20668;-64
2023/05/17 10:01:29;;;;;;;10.55;1.27;;;12.00;99.90;;;;;;4956231;28;20126;-64
2023/05/17 10:04:02;;;;;;;10.68;0.98;;;12.20;1.00;;;;;;4986484;28;20551;-66
2023/05/17 10:06:29;;;;;;;13.40;1.63;;;12.30;1.00;;;;;;4966080;28;20100;-64
2023/05/17 10:08:57;;;;;;;9.30;0.90;;;12.40;1.00;;;;;;4955521;28;20038;-64
2023/05/17 10:11:32;;;;;;;14.60;1.10;;;12.10;1.00;;;;;;4939121;28;20035;-64
2023/05/17 10:14:17;;;;;;;9.27;1.10;;;12.10;1.00;;;;;;4985596;28;20061;-64
2023/05/17 10:16:43;;;;;;;7.40;0.90;;;12.10;1.00;;;;;;4954517;28;20050;-64
2023/05/17 10:19:11;;;;;;;7.28;0.70;;;12.00;1.00;;;;;;4985722;28;20089;-64
2023/05/17 10:21:38;;;;;;;10.23;1.00;;;12.00;1.00;;;;;;4955496;28;20772;-64
2023/05/17 10:24:05;;;;;;;10.55;1.42;;;12.00;1.00;;;;;;4985725;28;20457;-64
2023/05/17 10:26:31;;;;;;;10.18;0.90;;;12.10;1.00;;;;;;4955485;28;20502;-64
2023/05/17 10:29:00;;;;;;;8.65;0.88;;;12.10;1.00;;;;;;4965524;28;20593;-65
2023/05/17 10:31:28;;;;;;;12.13;1.15;;;12.30;1.00;;;;;;4955229;28;20448;-64
2023/05/17 10:33:54;;;;;;;9.55;0.90;;;12.50;1.00;;;;;;4970729;28;20079;-64
2023/05/17 10:36:22;;;;;;;7.53;1.00;;;12.70;1.00;;;;;;4939050;28;20575;-64
2023/05/17 10:38:48;;;;;;;9.35;0.85;;;12.50;99.90;;;;;;4972775;28;20050;-64
2023/05/17 10:41:17;;;;;;;6.47;0.73;;;12.80;99.90;;;;;;4937755;28;20516;-64
2023/05/17 10:43:44;;;;;;;5.65;0.80;;;12.80;99.90;;;;;;4953523;28;20046;-64
2023/05/17 10:46:21;;;;;;;8.73;0.80;;;12.70;99.90;;;;;;4955264;28;20047;-64
2023/05/17 10:48:51;;;;;;;7.63;0.70;;;12.20;99.90;;;;;;4969806;28;20050;-65
2023/05/17 10:51:25;;;;;;;7.78;0.95;;;12.00;99.90;;;;;;4939269;28;20113;-66
2023/05/17 10:54:10;;;;;;;7.35;0.70;;;12.50;99.90;;;;;;4985093;28;20085;-64
2023/05/17 10:56:45;;;;;;;6.03;0.80;;;12.50;99.90;;;;;;4966578;28;20144;-64
2023/05/17 10:59:22;;;;;;;10.82;0.90;;;13.20;99.90;;;;;;4988318;28;20089;-65
2023/05/17 11:01:58;;;;;;;11.35;0.98;;;13.70;99.90;;;;;;4986954;28;20530;-64
2023/05/17 11:04:33;;;;;;;10.05;1.27;;;13.80;99.90;;;;;;4955621;28;20141;-64
2023/05/17 11:07:26;;;;;;;14.15;1.35;;;13.90;99.90;;;;;;4985881;28;20051;-65
2023/05/17 11:10:10;;;;;;;12.00;1.45;;;13.00;99.90;;;;;;4953766;28;20054;-65
2023/05/17 11:12:37;;;;;;;12.57;1.15;;;13.40;99.90;;;;;;4985903;28;20330;-67
2023/05/17 11:15:11;;;;;;;15.20;1.58;;;13.50;99.90;;;;;;4953184;28;20046;-64
2023/05/17 11:17:42;;;;;;;11.77;1.55;;;13.40;99.90;;;;;;4984902;28;20085;-64
2023/05/17 11:20:30;;;;;;;10.65;1.27;;;13.10;99.90;;;;;;4969508;28;20292;-68
2023/05/17 11:23:04;;;;;;;8.18;1.15;;;13.00;99.90;;;;;;4935700;28;20198;-64
2023/05/17 11:25:35;;;;;;;13.60;1.60;;;12.70;99.90;;;;;;4965595;28;20541;-64
2023/05/17 11:28:08;;;;;;;11.68;1.08;;;12.80;99.90;;;;;;4953775;28;20057;-64
2023/05/17 11:30:40;;;;;;;13.13;1.27;;;12.70;99.90;;;;;;4952820;28;20058;-64
2023/05/17 11:33:06;;;;;;;10.70;1.40;;;13.20;99.90;;;;;;4968168;28;20078;-64
2023/05/17 11:35:35;;;;;;;13.57;1.67;;;13.60;99.90;;;;;;4953948;28;20106;-65
2023/05/17 11:38:17;;;;;;;8.65;1.30;;;13.50;99.90;;;;;;4969552;28;20325;-68
2023/05/17 11:40:45;;;;;;;10.02;1.13;;;13.80;99.90;;;;;;4953423;28;20050;-65
2023/05/17 11:43:16;;;;;;;9.80;1.30;;;14.10;99.90;;;;;;4953855;28;20140;-64
2023/05/17 11:45:53;;;;;;;8.85;0.98;;;14.00;99.90;;;;;;4931961;28;20069;-64
2023/05/17 11:48:23;;;;;;;10.30;1.17;;;13.30;99.90;;;;;;4989071;28;20034;-64
2023/05/17 11:50:50;;;;;;;7.65;1.20;;;13.30;99.90;;;;;;4968127;28;20648;-65
2023/05/17 11:53:17;;;;;;;10.30;1.05;;;13.20;99.90;;;;;;4952758;28;20274;-65
2023/05/17 11:55:46;;;;;;;12.13;1.20;;;13.20;99.90;;;;;;4938421;28;20038;-64
2023/05/17 11:58:15;;;;;;;11.98;1.10;;;13.20;99.90;;;;;;4985997;28;20054;-64
2023/05/17 12:00:42;;;;;;;10.85;1.17;;;13.90;99.90;;;;;;4953373;28;20052;-64
2023/05/17 12:03:34;;;;;;;6.20;0.80;;;14.40;99.90;;;;;;4984316;28;20259;-64
2023/05/17 12:06:04;;;;;;;8.32;1.00;;;14.40;99.90;;;;;;4936074;28;20137;-65
2023/05/17 12:08:33;;;;;;;10.88;1.05;;;14.60;99.90;;;;;;4969093;28;20301;-66
2023/05/17 12:10:59;;;;;;;12.25;1.55;;;14.90;99.90;;;;;;4985061;28;20043;-65
2023/05/17 12:13:28;;;;;;;9.13;1.10;;;14.90;99.90;;;;;;4984229;28;20578;-66
2023/05/17 12:15:56;;;;;;;13.60;1.23;;;14.70;99.90;;;;;;4952156;28;20047;-65
2023/05/17 12:18:34;;;;;;;8.60;0.93;;;14.30;99.90;;;;;;4936657;28;20651;-65
2023/05/17 12:21:00;;;;;;;13.63;1.55;;;14.40;99.90;;;;;;4952767;28;20046;-65
2023/05/17 12:23:31;;;;;;;11.10;1.30;;;13.60;99.90;;;;;;4936492;28;20049;-65
2023/05/17 12:26:14;;;;;;;8.57;1.20;;;14.20;99.90;;;;;;4968197;28;20418;-65
2023/05/17 12:28:43;;;;;;;14.38;1.75;;;13.90;99.90;;;;;;4938406;28;20053;-65
2023/05/17 12:31:21;;;;;;;10.27;1.15;;;13.70;99.90;;;;;;4954826;28;20057;-64
2023/05/17 12:33:49;;;;;;;9.35;0.95;;;13.60;99.90;;;;;;4952406;28;20108;-64
2023/05/17 12:36:16;;;;;;;10.82;1.30;;;13.80;99.90;;;;;;4985473;28;20258;-64
2023/05/17 12:38:43;;;;;;;10.30;1.15;;;13.50;99.90;;;;;;4952826;28;20050;-65
2023/05/17 12:41:14;;;;;;;12.07;1.20;;;13.60;99.90;;;;;;4954569;28;20536;-64
2023/05/17 12:43:43;;;;;;;11.57;1.45;;;13.50;99.90;;;;;;4983917;28;20050;-65
2023/05/17 12:46:17;;;;;;;9.25;1.20;;;13.40;99.90;;;;;;4968512;28;20045;-64
2023/05/17 12:48:43;;;;;;;10.52;1.08;;;13.20;99.90;;;;;;4986154;28;20387;-64
2023/05/17 12:51:17;;;;;;;12.32;1.58;;;13.20;99.90;;;;;;4951530;28;20047;-66
2023/05/17 12:53:49;;;;;;;9.60;0.75;;;13.10;99.90;;;;;;4969723;28;20298;-63